createdAt,value
2017-10-05T00:00:02.583Z,1004.75
2017-10-05T00:01:02.544Z,1004.82
2017-10-05T00:02:02.556Z,1004.69
2017-10-05T00:03:02.580Z,1004.64
2017-10-05T00:04:02.560Z,1004.60
2017-10-05T00:05:02.589Z,1004.57
2017-10-05T00:06:02.593Z,1004.60
2017-10-05T00:07:02.545Z,1004.52
2017-10-05T00:08:02.516Z,1004.53
2017-10-05T00:09:02.545Z,1004.45
2017-10-05T00:10:02.546Z,1004.52
2017-10-05T00:11:02.520Z,1004.44
2017-10-05T00:12:02.563Z,1004.35
2017-10-05T00:13:02.604Z,1004.38
2017-10-05T00:14:02.551Z,1004.36
2017-10-05T00:15:02.549Z,1004.35
2017-10-05T00:16:02.628Z,1004.36
2017-10-05T00:17:02.628Z,1004.36
2017-10-05T00:18:02.561Z,1004.40
2017-10-05T00:19:02.513Z,1004.36
2017-10-05T00:20:02.558Z,1004.40
2017-10-05T00:21:02.558Z,1004.31
2017-10-05T00:22:02.636Z,1004.36
2017-10-05T00:23:02.613Z,1004.40
2017-10-05T00:24:02.604Z,1004.37
2017-10-05T00:25:02.615Z,1004.42
2017-10-05T00:26:02.559Z,1004.40
2017-10-05T00:27:02.632Z,1004.34
2017-10-05T00:28:02.635Z,1004.32
2017-10-05T00:29:02.561Z,1004.27
2017-10-05T00:30:02.723Z,1004.36
2017-10-05T00:31:02.613Z,1004.31
2017-10-05T00:32:02.578Z,1004.44
2017-10-05T00:33:02.613Z,1004.36
2017-10-05T00:34:02.612Z,1004.31
2017-10-05T00:35:02.520Z,1004.19
2017-10-05T00:36:02.613Z,1004.11
2017-10-05T00:37:02.588Z,1004.15
2017-10-05T00:38:02.524Z,1004.20
2017-10-05T00:39:02.524Z,1003.97
2017-10-05T00:40:02.569Z,1004.11
2017-10-05T00:41:02.594Z,1003.98
2017-10-05T00:42:02.620Z,1004.10
2017-10-05T00:43:02.620Z,1004.08
2017-10-05T00:44:02.614Z,1004.03
2017-10-05T00:45:02.577Z,1003.95
2017-10-05T00:46:02.570Z,1003.88
2017-10-05T00:47:02.618Z,1003.77
2017-10-05T00:48:02.574Z,1003.76
2017-10-05T00:49:02.528Z,1003.70
2017-10-05T00:50:02.575Z,1003.72
2017-10-05T00:51:02.577Z,1003.80
2017-10-05T00:52:02.534Z,1003.70
2017-10-05T00:53:02.626Z,1003.79
2017-10-05T00:54:02.591Z,1003.77
2017-10-05T00:55:02.622Z,1003.83
2017-10-05T00:56:02.621Z,1003.95
2017-10-05T00:57:02.596Z,1004.02
2017-10-05T00:58:02.525Z,1004.01
2017-10-05T00:59:02.557Z,1003.93
2017-10-05T01:00:02.529Z,1003.90
2017-10-05T01:01:02.524Z,1003.89
2017-10-05T01:02:02.577Z,1003.86
2017-10-05T01:03:02.574Z,1003.81
2017-10-05T01:04:02.594Z,1003.77
2017-10-05T01:05:02.550Z,1003.67
2017-10-05T01:06:02.566Z,1003.64
2017-10-05T01:07:02.612Z,1003.53
2017-10-05T01:08:02.650Z,1003.56
2017-10-05T01:09:02.632Z,1003.62
2017-10-05T01:10:02.587Z,1003.57
2017-10-05T01:11:02.634Z,1003.57
2017-10-05T01:12:02.601Z,1003.57
2017-10-05T01:13:02.652Z,1003.55
2017-10-05T01:14:02.554Z,1003.40
2017-10-05T01:15:02.559Z,1003.41
2017-10-05T01:16:02.591Z,1003.34
2017-10-05T01:17:02.558Z,1003.35
2017-10-05T01:18:02.529Z,1003.35
2017-10-05T01:19:02.619Z,1003.32
2017-10-05T01:20:02.597Z,1003.35
2017-10-05T01:21:02.533Z,1003.39
2017-10-05T01:22:02.604Z,1003.35
2017-10-05T01:23:02.538Z,1003.37
2017-10-05T01:24:02.598Z,1003.42
2017-10-05T01:25:02.641Z,1003.40
2017-10-05T01:26:02.598Z,1003.25
2017-10-05T01:27:02.547Z,1003.22
2017-10-05T01:28:02.598Z,1003.18
2017-10-05T01:29:02.602Z,1003.18
2017-10-05T01:30:02.601Z,1003.10
2017-10-05T01:31:02.583Z,1003.07
2017-10-05T01:32:02.603Z,1003.09
2017-10-05T01:33:02.651Z,1003.06
2017-10-05T01:34:02.649Z,1002.99
2017-10-05T01:35:02.606Z,1002.93
2017-10-05T01:36:02.604Z,1002.89
2017-10-05T01:37:02.650Z,1002.85
2017-10-05T01:38:02.653Z,1002.77
2017-10-05T01:39:02.681Z,1002.77
2017-10-05T01:40:02.604Z,1002.84
2017-10-05T01:41:02.651Z,1002.74
2017-10-05T01:42:02.655Z,1002.79
2017-10-05T01:43:02.607Z,1002.76
2017-10-05T01:44:02.500Z,1002.79
2017-10-05T01:45:02.705Z,1002.73
2017-10-05T01:46:02.572Z,1002.74
2017-10-05T01:47:02.575Z,1002.72
2017-10-05T01:48:02.544Z,1002.73
2017-10-05T01:49:02.620Z,1002.66
2017-10-05T01:50:02.597Z,1002.67
2017-10-05T01:51:02.532Z,1002.69
2017-10-05T01:52:02.699Z,1002.55
2017-10-05T01:53:02.581Z,1002.51
2017-10-05T01:54:02.661Z,1002.47
2017-10-05T01:55:02.616Z,1002.46
2017-10-05T01:56:02.616Z,1002.45
2017-10-05T01:57:02.669Z,1002.50
2017-10-05T01:58:02.633Z,1002.45
2017-10-05T01:59:02.627Z,1002.45
2017-10-05T02:00:02.666Z,1002.39
2017-10-05T02:01:02.599Z,1002.31
2017-10-05T02:02:02.620Z,1002.28
2017-10-05T02:03:02.573Z,1002.27
2017-10-05T02:04:02.695Z,1002.32
2017-10-05T02:05:02.665Z,1002.29
2017-10-05T02:06:02.670Z,1002.36
2017-10-05T02:07:02.572Z,1002.40
2017-10-05T02:08:02.621Z,1002.39
2017-10-05T02:09:02.629Z,1002.38
2017-10-05T02:10:02.582Z,1002.37
2017-10-05T02:11:02.578Z,1002.40
2017-10-05T02:12:02.672Z,1002.36
2017-10-05T02:13:02.690Z,1002.42
2017-10-05T02:14:02.552Z,1002.28
2017-10-05T02:15:02.562Z,1002.35
2017-10-05T02:16:02.568Z,1002.24
2017-10-05T02:17:02.579Z,1002.21
2017-10-05T02:18:02.568Z,1002.17
2017-10-05T02:19:02.509Z,1002.10
2017-10-05T02:20:02.509Z,1002.09
2017-10-05T02:21:02.568Z,1002.03
2017-10-05T02:22:02.559Z,1002.03
2017-10-05T02:23:02.519Z,1001.98
2017-10-05T02:24:02.683Z,1001.94
2017-10-05T02:25:02.635Z,1001.88
2017-10-05T02:26:02.632Z,1001.79
2017-10-05T02:27:02.663Z,1001.82
2017-10-05T02:28:02.736Z,1001.67
2017-10-05T02:29:02.679Z,1001.67
2017-10-05T02:30:02.643Z,1001.65
2017-10-05T02:31:02.616Z,1001.66
2017-10-05T02:32:02.704Z,1001.63
2017-10-05T02:33:02.618Z,1001.66
2017-10-05T02:34:02.602Z,1001.63
2017-10-05T02:35:02.652Z,1001.64
2017-10-05T02:36:02.683Z,1001.58
2017-10-05T02:37:02.650Z,1001.55
2017-10-05T02:38:02.639Z,1001.62
2017-10-05T02:39:02.592Z,1001.51
2017-10-05T02:40:02.685Z,1001.51
2017-10-05T02:41:02.620Z,1001.48
2017-10-05T02:42:02.710Z,1001.54
2017-10-05T02:43:02.644Z,1001.52
2017-10-05T02:44:02.577Z,1001.56
2017-10-05T02:45:02.579Z,1001.48
2017-10-05T02:46:02.610Z,1001.50
2017-10-05T02:47:02.608Z,1001.45
2017-10-05T02:48:02.582Z,1001.44
2017-10-05T02:49:02.583Z,1001.47
2017-10-05T02:50:02.589Z,1001.42
2017-10-05T02:51:02.584Z,1001.43
2017-10-05T02:52:02.586Z,1001.32
2017-10-05T02:53:02.588Z,1001.27
2017-10-05T02:54:02.694Z,1001.26
2017-10-05T02:55:02.694Z,1001.19
2017-10-05T02:56:02.648Z,1001.13
2017-10-05T02:57:02.633Z,1001.07
2017-10-05T02:58:02.700Z,1000.98
2017-10-05T02:59:02.649Z,1001.01
2017-10-05T03:00:02.650Z,1000.99
2017-10-05T03:01:02.602Z,1000.88
2017-10-05T03:02:02.696Z,1000.83
2017-10-05T03:03:02.650Z,1000.79
2017-10-05T03:04:02.657Z,1000.76
2017-10-05T03:05:02.611Z,1000.74
2017-10-05T03:06:02.708Z,1000.76
2017-10-05T03:07:02.615Z,1000.76
2017-10-05T03:08:02.655Z,1000.72
2017-10-05T03:09:02.622Z,1000.76
2017-10-05T03:10:02.639Z,1000.74
2017-10-05T03:11:02.702Z,1000.70
2017-10-05T03:12:02.658Z,1000.71
2017-10-05T03:13:02.663Z,1000.71
2017-10-05T03:14:02.662Z,1000.70
2017-10-05T03:15:02.747Z,1000.68
2017-10-05T03:16:02.692Z,1000.63
2017-10-05T03:17:02.665Z,1000.64
2017-10-05T03:18:02.694Z,1000.51
2017-10-05T03:19:02.709Z,1000.52
2017-10-05T03:20:02.661Z,1000.46
2017-10-05T03:21:02.709Z,1000.41
2017-10-05T03:22:02.735Z,1000.40
2017-10-05T03:23:02.710Z,1000.37
2017-10-05T03:24:02.599Z,1000.38
2017-10-05T03:25:02.629Z,1000.34
2017-10-05T03:26:02.632Z,1000.29
2017-10-05T03:27:02.634Z,1000.33
2017-10-05T03:28:02.631Z,1000.28
2017-10-05T03:29:02.609Z,1000.34
2017-10-05T03:30:02.612Z,1000.28
2017-10-05T03:31:02.609Z,1000.25
2017-10-05T03:32:02.669Z,1000.33
2017-10-05T03:33:02.611Z,1000.30
2017-10-05T03:34:02.689Z,1000.29
2017-10-05T03:35:02.687Z,1000.29
2017-10-05T03:36:02.625Z,1000.27
2017-10-05T03:37:02.670Z,1000.29
2017-10-05T03:38:02.724Z,1000.30
2017-10-05T03:39:02.678Z,1000.24
2017-10-05T03:40:02.683Z,1000.21
2017-10-05T03:41:02.750Z,1000.18
2017-10-05T03:42:02.726Z,1000.17
2017-10-05T03:43:02.725Z,1000.14
2017-10-05T03:44:02.678Z,1000.07
2017-10-05T03:45:02.680Z,1000.09
2017-10-05T03:46:02.677Z,1000.10
2017-10-05T03:47:02.681Z,1000.03
2017-10-05T03:48:02.643Z,1000.04
2017-10-05T03:49:02.648Z,999.96
2017-10-05T03:50:02.650Z,999.91
2017-10-05T03:51:02.647Z,999.90
2017-10-05T03:52:02.648Z,999.89
2017-10-05T03:53:02.629Z,999.88
2017-10-05T03:54:02.712Z,999.91
2017-10-05T03:55:02.651Z,999.85
2017-10-05T03:56:02.665Z,999.86
2017-10-05T03:57:02.686Z,999.87
2017-10-05T03:58:02.685Z,999.79
2017-10-05T03:59:02.699Z,999.73
2017-10-05T04:00:02.739Z,999.75
2017-10-05T04:01:02.691Z,999.72
2017-10-05T04:02:02.831Z,999.61
2017-10-05T04:03:02.739Z,999.54
2017-10-05T04:04:02.663Z,999.53
2017-10-05T04:05:02.685Z,999.49
2017-10-05T04:06:02.696Z,999.47
2017-10-05T04:07:02.657Z,999.45
2017-10-05T04:08:02.653Z,999.42
2017-10-05T04:09:02.687Z,999.41
2017-10-05T04:10:02.701Z,999.39
2017-10-05T04:11:02.730Z,999.43
2017-10-05T04:12:02.727Z,999.36
2017-10-05T04:13:02.699Z,999.35
2017-10-05T04:14:02.665Z,999.35
2017-10-05T04:15:02.744Z,999.28
2017-10-05T04:16:02.663Z,999.26
2017-10-05T04:17:02.652Z,999.26
2017-10-05T04:18:02.698Z,999.26
2017-10-05T04:19:02.715Z,999.20
2017-10-05T04:20:02.682Z,999.03
2017-10-05T04:21:02.670Z,999.02
2017-10-05T04:22:02.707Z,999.03
2017-10-05T04:23:02.655Z,999.04
2017-10-05T04:24:02.700Z,998.99
2017-10-05T04:25:02.747Z,999.04
2017-10-05T04:26:02.751Z,998.94
2017-10-05T04:27:02.659Z,998.92
2017-10-05T04:28:02.708Z,998.92
2017-10-05T04:29:02.666Z,998.97
2017-10-05T04:30:02.686Z,998.88
2017-10-05T04:31:02.712Z,998.84
2017-10-05T04:32:02.706Z,998.80
2017-10-05T04:33:02.727Z,998.76
2017-10-05T04:34:02.705Z,998.80
2017-10-05T04:35:02.758Z,998.82
2017-10-05T04:36:02.722Z,998.69
2017-10-05T04:37:02.757Z,998.68
2017-10-05T04:38:02.657Z,998.65
2017-10-05T04:39:02.713Z,998.60
2017-10-05T04:40:02.720Z,998.57
2017-10-05T04:41:02.661Z,998.58
2017-10-05T04:42:02.693Z,998.57
2017-10-05T04:43:02.757Z,998.49
2017-10-05T04:44:02.714Z,998.44
2017-10-05T04:45:02.688Z,998.47
2017-10-05T04:46:02.749Z,998.43
2017-10-05T04:47:02.665Z,998.35
2017-10-05T04:48:02.721Z,998.38
2017-10-05T04:49:02.713Z,998.41
2017-10-05T04:50:02.755Z,998.34
2017-10-05T04:51:02.696Z,998.34
2017-10-05T04:52:02.757Z,998.34
2017-10-05T04:53:02.697Z,998.28
2017-10-05T04:54:02.695Z,998.22
2017-10-05T04:55:02.756Z,998.19
2017-10-05T04:56:02.753Z,998.14
2017-10-05T04:57:02.749Z,998.14
2017-10-05T04:58:02.739Z,998.09
2017-10-05T04:59:02.693Z,998.09
2017-10-05T05:00:02.754Z,998.12
2017-10-05T05:01:02.762Z,998.20
2017-10-05T05:02:02.758Z,998.19
2017-10-05T05:03:02.699Z,998.13
2017-10-05T05:04:02.668Z,998.08
2017-10-05T05:05:02.665Z,998.11
2017-10-05T05:06:02.690Z,998.16
2017-10-05T05:07:02.781Z,998.08
2017-10-05T05:08:02.726Z,998.03
2017-10-05T05:09:02.693Z,997.93
2017-10-05T05:10:02.784Z,997.84
2017-10-05T05:11:02.669Z,997.81
2017-10-05T05:12:02.726Z,997.77
2017-10-05T05:13:02.734Z,997.70
2017-10-05T05:14:02.665Z,997.64
2017-10-05T05:15:02.734Z,997.63
2017-10-05T05:16:02.781Z,997.56
2017-10-05T05:17:02.807Z,997.59
2017-10-05T05:18:02.738Z,997.56
2017-10-05T05:19:02.699Z,997.56
2017-10-05T05:20:02.715Z,997.57
2017-10-05T05:21:02.718Z,997.54
2017-10-05T05:22:02.736Z,997.60
2017-10-05T05:23:02.690Z,997.53
2017-10-05T05:24:02.736Z,997.61
2017-10-05T05:25:02.722Z,997.59
2017-10-05T05:26:02.741Z,997.55
2017-10-05T05:27:02.736Z,997.46
2017-10-05T05:28:02.756Z,997.40
2017-10-05T05:29:02.787Z,997.38
2017-10-05T05:30:02.784Z,997.29
2017-10-05T05:31:02.757Z,997.27
2017-10-05T05:32:02.791Z,997.26
2017-10-05T05:33:02.743Z,997.19
2017-10-05T05:34:02.697Z,997.26
2017-10-05T05:35:02.743Z,997.21
2017-10-05T05:36:02.729Z,997.12
2017-10-05T05:37:02.744Z,997.15
2017-10-05T05:38:02.794Z,997.06
2017-10-05T05:39:02.738Z,997.11
2017-10-05T05:40:02.801Z,996.98
2017-10-05T05:41:02.695Z,996.98
2017-10-05T05:42:02.751Z,996.92
2017-10-05T05:43:02.749Z,996.91
2017-10-05T05:44:02.749Z,996.91
2017-10-05T05:45:02.765Z,996.88
2017-10-05T05:46:02.688Z,996.86
2017-10-05T05:47:02.711Z,996.83
2017-10-05T05:48:02.715Z,996.91
2017-10-05T05:49:02.689Z,996.85
2017-10-05T05:50:02.693Z,996.77
2017-10-05T05:51:02.719Z,996.69
2017-10-05T05:52:02.717Z,996.70
2017-10-05T05:53:02.755Z,996.69
2017-10-05T05:54:02.753Z,996.67
2017-10-05T05:55:02.727Z,996.61
2017-10-05T05:56:02.829Z,996.64
2017-10-05T05:57:02.801Z,996.53
2017-10-05T05:58:02.766Z,996.54
2017-10-05T05:59:02.802Z,996.42
2017-10-05T06:00:02.809Z,996.38
2017-10-05T06:01:02.710Z,996.35
2017-10-05T06:02:02.766Z,996.34
2017-10-05T06:03:02.809Z,996.29
2017-10-05T06:04:02.762Z,996.37
2017-10-05T06:05:02.711Z,996.37
2017-10-05T06:06:02.769Z,996.34
2017-10-05T06:07:02.774Z,996.28
2017-10-05T06:08:02.766Z,996.20
2017-10-05T06:09:02.728Z,996.19
2017-10-05T06:10:02.802Z,996.15
2017-10-05T06:11:02.706Z,996.19
2017-10-05T06:12:02.741Z,996.16
2017-10-05T06:13:02.800Z,996.15
2017-10-05T06:14:02.737Z,996.12
2017-10-05T06:15:02.743Z,996.15
2017-10-05T06:16:02.735Z,996.07
2017-10-05T06:17:02.710Z,996.03
2017-10-05T06:18:02.809Z,996.05
2017-10-05T06:19:02.785Z,996.03
2017-10-05T06:20:02.747Z,996.02
2017-10-05T06:21:02.780Z,995.96
2017-10-05T06:22:02.809Z,996.00
2017-10-05T06:23:02.807Z,995.96
2017-10-05T06:24:02.713Z,995.80
2017-10-05T06:25:02.815Z,995.89
2017-10-05T06:26:02.754Z,995.79
2017-10-05T06:27:02.758Z,995.74
2017-10-05T06:28:02.775Z,995.78
2017-10-05T06:29:02.829Z,995.75
2017-10-05T06:30:02.827Z,995.72
2017-10-05T06:31:02.824Z,995.63
2017-10-05T06:32:02.760Z,995.70
2017-10-05T06:33:02.805Z,995.56
2017-10-05T06:34:02.725Z,995.52
2017-10-05T06:35:02.715Z,995.61
2017-10-05T06:36:02.710Z,995.62
2017-10-05T06:37:02.714Z,995.54
2017-10-05T06:38:02.744Z,995.52
2017-10-05T06:39:02.715Z,995.51
2017-10-05T06:40:02.745Z,995.59
2017-10-05T06:41:02.743Z,995.48
2017-10-05T06:42:02.716Z,995.57
2017-10-05T06:43:02.783Z,995.54
2017-10-05T06:44:02.718Z,995.50
2017-10-05T06:45:02.751Z,995.55
2017-10-05T06:46:02.755Z,995.43
2017-10-05T06:47:02.786Z,995.31
2017-10-05T06:48:02.786Z,995.41
2017-10-05T06:49:02.765Z,995.34
2017-10-05T06:50:02.826Z,995.34
2017-10-05T06:51:02.755Z,995.45
2017-10-05T06:52:02.735Z,995.36
2017-10-05T06:53:02.828Z,995.42
2017-10-05T06:54:02.736Z,995.27
2017-10-05T06:55:02.749Z,995.36
2017-10-05T06:56:02.726Z,995.38
2017-10-05T06:57:02.727Z,995.25
2017-10-05T06:58:02.753Z,995.23
2017-10-05T06:59:02.752Z,995.19
2017-10-05T07:00:02.792Z,995.18
2017-10-05T07:01:02.726Z,995.04
2017-10-05T07:02:02.796Z,995.09
2017-10-05T07:03:02.726Z,995.01
2017-10-05T07:04:02.734Z,994.86
2017-10-05T07:05:02.869Z,994.94
2017-10-05T07:06:02.830Z,994.90
2017-10-05T07:07:02.812Z,994.98
2017-10-05T07:08:02.841Z,995.00
2017-10-05T07:09:02.737Z,994.98
2017-10-05T07:10:02.833Z,994.91
2017-10-05T07:11:02.748Z,994.99
2017-10-05T07:12:02.841Z,994.97
2017-10-05T07:13:02.781Z,994.95
2017-10-05T07:14:02.762Z,994.91
2017-10-05T07:15:02.818Z,994.94
2017-10-05T07:16:02.802Z,994.91
2017-10-05T07:17:02.841Z,994.88
2017-10-05T07:18:02.811Z,994.83
2017-10-05T07:19:02.831Z,994.95
2017-10-05T07:20:02.745Z,994.86
2017-10-05T07:21:02.775Z,994.84
2017-10-05T07:22:02.786Z,994.81
2017-10-05T07:23:02.807Z,994.79
2017-10-05T07:24:02.767Z,994.77
2017-10-05T07:25:02.844Z,994.84
2017-10-05T07:26:02.788Z,994.75
2017-10-05T07:27:02.772Z,994.71
2017-10-05T07:28:02.843Z,994.76
2017-10-05T07:29:02.807Z,994.78
2017-10-05T07:30:02.799Z,994.77
2017-10-05T07:31:02.847Z,994.79
2017-10-05T07:32:02.819Z,994.57
2017-10-05T07:33:02.852Z,994.75
2017-10-05T07:34:02.809Z,994.70
2017-10-05T07:35:02.837Z,994.70
2017-10-05T07:36:02.902Z,994.64
2017-10-05T07:37:02.836Z,994.71
2017-10-05T07:38:02.819Z,994.53
2017-10-05T07:39:02.764Z,994.60
2017-10-05T07:40:02.829Z,994.61
2017-10-05T07:41:02.883Z,994.56
2017-10-05T07:42:02.868Z,994.56
2017-10-05T07:43:02.862Z,994.54
2017-10-05T07:44:02.778Z,994.60
2017-10-05T07:45:02.847Z,994.55
2017-10-05T07:46:02.761Z,994.52
2017-10-05T07:47:02.822Z,994.56
2017-10-05T07:48:02.832Z,994.44
2017-10-05T07:49:02.794Z,994.40
2017-10-05T07:50:02.826Z,994.34
2017-10-05T07:51:02.836Z,994.36
2017-10-05T07:52:02.838Z,994.40
2017-10-05T07:53:02.801Z,994.37
2017-10-05T07:54:02.832Z,994.29
2017-10-05T07:55:02.769Z,994.40
2017-10-05T07:56:02.772Z,994.32
2017-10-05T07:57:02.871Z,994.32
2017-10-05T07:58:02.821Z,994.30
2017-10-05T07:59:02.809Z,994.24
2017-10-05T08:00:02.772Z,994.17
2017-10-05T08:01:02.801Z,994.16
2017-10-05T08:02:02.863Z,994.13
2017-10-05T08:03:02.802Z,994.13
2017-10-05T08:04:02.774Z,994.15
2017-10-05T08:05:02.778Z,994.08
2017-10-05T08:06:02.840Z,994.09
2017-10-05T08:07:02.873Z,994.07
2017-10-05T08:08:02.781Z,994.00
2017-10-05T08:09:02.775Z,994.15
2017-10-05T08:10:02.783Z,994.07
2017-10-05T08:11:02.886Z,993.99
2017-10-05T08:12:02.890Z,993.98
2017-10-05T08:13:02.879Z,993.93
2017-10-05T08:14:02.791Z,993.88
2017-10-05T08:15:02.804Z,993.91
2017-10-05T08:16:02.818Z,993.91
2017-10-05T08:17:02.843Z,993.89
2017-10-05T08:18:02.855Z,993.85
2017-10-05T08:19:02.836Z,993.87
2017-10-05T08:20:02.852Z,993.77
2017-10-05T08:21:02.821Z,993.82
2017-10-05T08:22:02.821Z,993.88
2017-10-05T08:23:02.808Z,993.75
2017-10-05T08:24:02.875Z,993.88
2017-10-05T08:25:02.790Z,993.77
2017-10-05T08:26:02.850Z,993.82
2017-10-05T08:27:02.878Z,993.68
2017-10-05T08:28:02.787Z,993.78
2017-10-05T08:29:02.840Z,993.83
2017-10-05T08:30:02.914Z,993.72
2017-10-05T08:31:02.877Z,993.67
2017-10-05T08:32:02.839Z,993.65
2017-10-05T08:33:02.880Z,993.73
2017-10-05T08:34:02.795Z,993.56
2017-10-05T08:35:02.900Z,993.51
2017-10-05T08:36:02.818Z,993.58
2017-10-05T08:37:02.922Z,993.57
2017-10-05T08:38:02.847Z,993.50
2017-10-05T08:39:02.832Z,993.52
2017-10-05T08:40:02.840Z,993.48
2017-10-05T08:41:02.831Z,993.36
2017-10-05T08:42:02.801Z,993.36
2017-10-05T08:43:02.801Z,993.38
2017-10-05T08:44:02.838Z,993.28
2017-10-05T08:45:02.920Z,993.26
2017-10-05T08:46:02.856Z,993.32
2017-10-05T08:47:02.905Z,993.29
2017-10-05T08:48:02.905Z,993.25
2017-10-05T08:49:02.843Z,993.19
2017-10-05T08:50:02.855Z,993.01
2017-10-05T08:51:02.907Z,993.12
2017-10-05T08:52:02.861Z,993.04
2017-10-05T08:53:02.860Z,993.14
2017-10-05T08:54:02.904Z,992.99
2017-10-05T08:55:02.859Z,993.03
2017-10-05T08:56:02.814Z,992.96
2017-10-05T08:57:02.794Z,992.96
2017-10-05T08:58:02.861Z,992.91
2017-10-05T08:59:02.857Z,992.96
2017-10-05T09:00:02.797Z,992.92
2017-10-05T09:01:02.828Z,992.98
2017-10-05T09:02:02.865Z,992.91
2017-10-05T09:03:02.859Z,992.95
2017-10-05T09:04:02.865Z,992.87
2017-10-05T09:05:02.846Z,992.89
2017-10-05T09:06:02.898Z,992.88
2017-10-05T09:07:02.875Z,992.92
2017-10-05T09:08:02.831Z,992.94
2017-10-05T09:09:02.921Z,992.94
2017-10-05T09:10:02.823Z,992.96
2017-10-05T09:11:02.820Z,992.96
2017-10-05T09:12:02.852Z,992.93
2017-10-05T09:13:02.917Z,992.77
2017-10-05T09:14:02.817Z,992.96
2017-10-05T09:15:02.874Z,992.96
2017-10-05T09:16:02.922Z,993.01
2017-10-05T09:17:02.941Z,992.86
2017-10-05T09:18:02.860Z,992.91
2017-10-05T09:19:02.873Z,992.89
2017-10-05T09:20:02.881Z,993.00
2017-10-05T09:21:02.902Z,992.95
2017-10-05T09:22:02.934Z,992.83
2017-10-05T09:23:02.929Z,992.90
2017-10-05T09:24:02.861Z,992.85
2017-10-05T09:25:02.879Z,992.88
2017-10-05T09:26:02.874Z,992.88
2017-10-05T09:27:02.818Z,992.93
2017-10-05T09:28:02.844Z,992.84
2017-10-05T09:29:02.880Z,992.96
2017-10-05T09:30:02.844Z,992.97
2017-10-05T09:31:02.883Z,992.76
2017-10-05T09:32:02.882Z,992.83
2017-10-05T09:33:02.846Z,992.88
2017-10-05T09:34:02.848Z,992.91
2017-10-05T09:35:02.904Z,992.73
2017-10-05T09:36:02.915Z,992.80
2017-10-05T09:37:02.829Z,992.71
2017-10-05T09:38:02.894Z,992.66
2017-10-05T09:39:02.897Z,992.64
2017-10-05T09:40:02.890Z,992.73
2017-10-05T09:41:02.852Z,992.62
2017-10-05T09:42:02.837Z,992.60
2017-10-05T09:43:02.926Z,992.60
2017-10-05T09:44:02.917Z,992.51
2017-10-05T09:45:02.903Z,992.51
2017-10-05T09:46:02.921Z,992.53
2017-10-05T09:47:02.873Z,992.44
2017-10-05T09:48:02.934Z,992.49
2017-10-05T09:49:02.875Z,992.40
2017-10-05T09:50:02.925Z,992.46
2017-10-05T09:51:02.934Z,992.35
2017-10-05T09:52:02.939Z,992.43
2017-10-05T09:53:02.938Z,992.45
2017-10-05T09:54:02.925Z,992.29
2017-10-05T09:55:02.897Z,992.60
2017-10-05T09:56:02.860Z,992.39
2017-10-05T09:57:02.866Z,992.49
2017-10-05T09:58:02.836Z,992.15
2017-10-05T09:59:02.898Z,992.17
2017-10-05T10:00:02.836Z,992.42
2017-10-05T10:01:02.837Z,992.22
2017-10-05T10:02:02.907Z,992.33
2017-10-05T10:03:02.902Z,992.19
2017-10-05T10:04:02.864Z,992.40
2017-10-05T10:05:02.869Z,992.31
2017-10-05T10:06:02.901Z,992.15
2017-10-05T10:07:02.902Z,992.27
2017-10-05T10:08:02.868Z,992.25
2017-10-05T10:09:02.887Z,992.10
2017-10-05T10:10:02.903Z,991.98
2017-10-05T10:11:02.868Z,991.94
2017-10-05T10:12:02.844Z,992.09
2017-10-05T10:13:02.845Z,992.04
2017-10-05T10:14:02.845Z,992.13
2017-10-05T10:15:02.917Z,992.25
2017-10-05T10:16:02.888Z,992.10
2017-10-05T10:17:02.865Z,992.12
2017-10-05T10:18:02.965Z,992.19
2017-10-05T10:19:02.897Z,991.95
2017-10-05T10:20:02.893Z,992.03
2017-10-05T10:21:02.913Z,992.04
2017-10-05T10:22:02.901Z,992.07
2017-10-05T10:23:02.915Z,992.09
2017-10-05T10:24:02.928Z,992.12
2017-10-05T10:25:02.956Z,992.20
2017-10-05T10:26:02.962Z,992.05
2017-10-05T10:27:02.922Z,992.31
2017-10-05T10:28:02.918Z,992.04
2017-10-05T10:29:02.935Z,991.82
2017-10-05T10:30:02.920Z,992.04
2017-10-05T10:31:02.950Z,992.16
2017-10-05T10:32:02.917Z,992.28
2017-10-05T10:33:02.923Z,992.32
2017-10-05T10:34:02.930Z,992.09
2017-10-05T10:35:02.973Z,992.17
2017-10-05T10:36:02.898Z,992.06
2017-10-05T10:37:02.907Z,992.08
2017-10-05T10:38:02.904Z,992.01
2017-10-05T10:39:02.968Z,992.03
2017-10-05T10:40:02.931Z,992.16
2017-10-05T10:41:02.939Z,991.92
2017-10-05T10:42:02.943Z,992.05
2017-10-05T10:43:02.937Z,992.05
2017-10-05T10:44:02.976Z,992.02
2017-10-05T10:45:02.994Z,991.89
2017-10-05T10:46:02.929Z,991.73
2017-10-05T10:47:02.941Z,991.94
2017-10-05T10:48:02.931Z,991.85
2017-10-05T10:49:02.879Z,991.95
2017-10-05T10:50:02.915Z,991.86
2017-10-05T10:51:02.948Z,991.80
2017-10-05T10:52:02.977Z,991.85
2017-10-05T10:53:03.001Z,991.85
2017-10-05T10:54:02.915Z,991.89
2017-10-05T10:55:02.882Z,991.87
2017-10-05T10:56:02.975Z,991.94
2017-10-05T10:57:03.000Z,991.75
2017-10-05T10:58:02.979Z,991.77
2017-10-05T10:59:02.921Z,991.91
2017-10-05T11:00:02.950Z,991.85
2017-10-05T11:01:02.943Z,991.93
2017-10-05T11:02:02.938Z,991.85
2017-10-05T11:03:02.920Z,992.02
2017-10-05T11:04:02.993Z,992.18
2017-10-05T11:05:02.879Z,992.32
2017-10-05T11:06:02.885Z,992.20
2017-10-05T11:07:02.884Z,992.18
2017-10-05T11:08:02.886Z,992.27
2017-10-05T11:09:02.889Z,992.30
2017-10-05T11:10:02.894Z,992.24
2017-10-05T11:11:02.897Z,992.44
2017-10-05T11:12:02.910Z,992.55
2017-10-05T11:13:02.909Z,992.55
2017-10-05T11:14:02.861Z,992.62
2017-10-05T11:15:02.893Z,992.59
2017-10-05T11:16:02.992Z,992.70
2017-10-05T11:17:03.006Z,992.66
2017-10-05T11:18:02.950Z,992.71
2017-10-05T11:19:02.925Z,992.63
2017-10-05T11:20:02.995Z,992.62
2017-10-05T11:21:02.948Z,992.64
2017-10-05T11:22:02.997Z,992.49
2017-10-05T11:23:03.020Z,992.64
2017-10-05T11:24:02.916Z,992.64
2017-10-05T11:25:02.947Z,992.49
2017-10-05T11:26:02.998Z,992.59
2017-10-05T11:27:02.956Z,992.71
2017-10-05T11:28:03.000Z,992.64
2017-10-05T11:29:03.005Z,992.63
2017-10-05T11:30:03.000Z,992.61
2017-10-05T11:31:03.008Z,992.61
2017-10-05T11:32:02.936Z,992.69
2017-10-05T11:33:03.008Z,992.78
2017-10-05T11:34:02.938Z,992.69
2017-10-05T11:35:02.967Z,992.67
2017-10-05T11:36:02.940Z,992.69
2017-10-05T11:37:02.954Z,992.69
2017-10-05T11:38:02.934Z,992.60
2017-10-05T11:39:02.939Z,992.75
2017-10-05T11:40:02.969Z,992.79
2017-10-05T11:41:02.939Z,992.70
2017-10-05T11:42:02.903Z,992.74
2017-10-05T11:43:02.928Z,992.84
2017-10-05T11:44:02.972Z,992.86
2017-10-05T11:45:02.967Z,992.65
2017-10-05T11:46:03.017Z,992.86
2017-10-05T11:47:02.925Z,992.98
2017-10-05T11:48:02.960Z,992.74
2017-10-05T11:49:02.975Z,992.81
2017-10-05T11:50:02.942Z,992.70
2017-10-05T11:51:02.968Z,992.76
2017-10-05T11:52:02.970Z,992.84
2017-10-05T11:53:03.012Z,993.14
2017-10-05T11:54:02.995Z,992.93
2017-10-05T11:55:02.980Z,993.25
2017-10-05T11:56:02.975Z,993.14
2017-10-05T11:57:02.917Z,993.42
2017-10-05T11:58:03.004Z,993.17
2017-10-05T11:59:02.988Z,993.35
2017-10-05T12:00:02.996Z,993.29
2017-10-05T12:01:02.972Z,993.52
2017-10-05T12:02:02.980Z,993.29
2017-10-05T12:03:03.017Z,993.52
2017-10-05T12:04:02.962Z,993.46
2017-10-05T12:05:02.997Z,993.67
2017-10-05T12:06:03.005Z,993.50
2017-10-05T12:07:02.924Z,993.77
2017-10-05T12:08:02.983Z,993.56
2017-10-05T12:09:02.960Z,993.51
2017-10-05T12:10:03.024Z,993.96
2017-10-05T12:11:02.945Z,993.90
2017-10-05T12:12:03.029Z,993.92
2017-10-05T12:13:03.019Z,993.98
2017-10-05T12:14:03.031Z,993.90
2017-10-05T12:15:02.978Z,994.09
2017-10-05T12:16:02.987Z,994.06
2017-10-05T12:17:02.990Z,994.03
2017-10-05T12:18:03.007Z,994.02
2017-10-05T12:19:03.038Z,994.25
2017-10-05T12:20:03.136Z,994.38
2017-10-05T12:21:02.988Z,994.26